Terminal Aerodrome Forecast
Issued by NWS

Home | Current Version | Previous Version | Text Only | Print | Product List | Glossary On
Versions: 1 2 3 4 5 6 7 8 9 10 11 12
000
FTUS45 KCYS 252337
TAFLAR
TAF
KLAR 252337Z 2600/2624 24012KT P6SM SKC
     FM260200 20010KT P6SM SKC
     FM261400 24018G30KT P6SM SCT025
     FM261600 25022G34KT P6SM SCT035=

USA.gov is the U.S. government's official web portal to all federal, state and local government web resources and services.